.
WxDataArchive / Data Records for 2009-07-18
2009-07-17 July 2009 2009-07-19

Data Records for Saturday, 18 July 2009

Time	Temp	Chill	HIndex	Humid	Dewpt	 Wind 	HiWind	WindDir	Rain 	Barom 
-----	----	-----	------	-----	-----	------	------	-------	-----	----- 
00:00	58.9	58.9	58.9	89	55.7	0	1	292	0.00	29.887 
00:05	58.9	58.9	58.9	89	55.7	0	1	292	0.00	29.887 
00:10	58.9	58.9	58.9	89	55.7	0	1	292	0.00	29.887 
00:15	59.0	59.0	59.0	89	55.8	0	0	---	0.00	29.885 
00:20	59.0	59.0	59.0	89	55.8	0	0	---	0.00	29.885 
00:25	59.0	59.0	59.0	89	55.8	0	0	---	0.00	29.885 
00:30	59.0	59.0	59.0	89	55.8	0	1	292	0.00	29.885 
00:35	59.0	59.0	59.0	89	55.8	0	1	292	0.00	29.885 
00:40	58.9	58.9	58.9	89	55.7	0	1	292	0.00	29.885 
00:45	58.9	58.9	58.9	89	55.7	0	1	292	0.00	29.887 
00:50	58.9	58.9	58.9	89	55.7	0	1	292	0.00	29.887 
00:55	58.9	58.9	58.9	88	55.3	0	1	292	0.00	29.887 
01:00	58.9	58.9	58.9	88	55.3	0	1	292	0.00	29.884 
01:05	58.9	58.9	58.9	88	55.3	0	1	292	0.00	29.884 
01:10	58.9	58.9	58.9	88	55.3	0	1	292	0.00	29.884 
01:15	58.9	58.9	58.9	88	55.3	0	1	292	0.00	29.884 
01:20	58.9	58.9	58.9	88	55.3	0	1	292	0.00	29.884 
01:25	58.7	58.7	58.7	88	55.2	0	0	---	0.00	29.884 
01:30	58.7	58.7	58.7	88	55.2	0	1	292	0.00	29.882 
01:35	58.6	58.6	58.6	89	55.4	0	1	292	0.00	29.882 
01:40	58.4	58.4	58.4	89	55.2	0	1	292	0.00	29.882 
01:45	58.4	58.4	58.4	89	55.2	0	1	292	0.00	29.885 
01:50	58.4	58.4	58.4	89	55.2	0	1	292	0.00	29.885 
01:55	58.4	58.4	58.4	89	55.2	0	1	292	0.00	29.885 
02:00	58.4	58.4	58.4	89	55.2	0	0	---	0.00	29.890 
02:05	58.3	58.3	58.3	89	55.1	0	0	---	0.00	29.890 
02:10	58.4	58.4	58.4	90	55.5	0	1	292	0.00	29.890 
02:15	58.4	58.4	58.4	90	55.5	0	1	292	0.00	29.894 
02:20	58.6	58.6	58.6	91	56.0	0	1	292	0.00	29.894 
02:25	58.7	58.7	58.7	91	56.1	0	1	292	0.00	29.894 
02:30	58.9	58.9	58.9	91	56.3	0	1	292	0.00	29.889 
02:35	59.0	59.0	59.0	91	56.4	0	1	292	0.00	29.889 
02:40	59.0	59.0	59.0	91	56.4	0	1	292	0.00	29.889 
02:45	59.2	59.2	59.2	92	56.9	0	1	292	0.00	29.890 
02:50	59.2	59.2	59.2	91	56.6	0	1	292	0.00	29.890 
02:55	59.2	59.2	59.2	91	56.6	0	1	292	0.00	29.890 
03:00	59.2	59.2	59.2	91	56.6	0	2	292	0.00	29.888 
03:05	59.2	59.2	59.2	91	56.6	0	2	292	0.00	29.888 
03:10	59.2	59.2	59.2	91	56.6	0	2	292	0.00	29.888 
03:15	59.2	59.2	59.2	91	56.6	0	1	292	0.00	29.889 
03:20	59.2	59.2	59.2	91	56.6	0	3	292	0.00	29.889 
03:25	59.2	59.2	59.2	91	56.6	0	3	292	0.00	29.889 
03:30	59.2	59.2	59.2	91	56.6	0	1	292	0.00	29.887 
03:35	59.2	59.2	59.2	91	56.6	0	2	292	0.00	29.887 
03:40	59.0	59.0	59.0	91	56.4	0	2	292	0.00	29.887 
03:45	59.0	59.0	59.0	91	56.4	0	3	292	0.00	29.890 
03:50	59.0	59.0	59.0	91	56.4	0	2	292	0.00	29.890 
03:55	58.9	58.9	58.9	91	56.3	0	2	292	0.00	29.890 
04:00	58.9	58.9	58.9	91	56.3	0	1	292	0.00	29.893 
04:05	58.9	58.9	58.9	91	56.3	0	1	292	0.00	29.893 
04:10	58.9	58.9	58.9	91	56.3	0	1	292	0.00	29.893 
04:15	58.9	58.9	58.9	91	56.3	0	1	292	0.01	29.902 
04:20	58.9	58.9	58.9	91	56.3	0	1	292	0.00	29.902 
04:25	58.9	58.9	58.9	91	56.3	0	1	292	0.00	29.902 
04:30	58.9	58.9	58.9	91	56.3	0	1	292	0.00	29.902 
04:35	58.9	58.9	58.9	91	56.3	0	1	292	0.00	29.902 
04:40	58.9	58.9	58.9	91	56.3	0	1	292	0.00	29.902 
04:45	58.9	58.9	58.9	91	56.3	0	2	292	0.00	29.903 
04:50	58.9	58.9	58.9	91	56.3	0	2	292	0.00	29.903 
04:55	58.9	58.9	58.9	91	56.3	0	1	292	0.00	29.903 
05:00	58.9	58.9	58.9	91	56.3	0	1	292	0.00	29.904 
05:05	58.9	58.9	58.9	91	56.3	0	1	292	0.00	29.904 
05:10	58.9	58.9	58.9	91	56.3	0	1	292	0.00	29.904 
05:15	58.9	58.9	58.9	91	56.3	0	1	292	0.00	29.905 
05:20	58.9	58.9	58.9	92	56.6	0	1	292	0.00	29.905 
05:25	58.9	58.9	58.9	92	56.6	0	1	292	0.00	29.905 
05:30	58.9	58.9	58.9	92	56.6	0	1	292	0.00	29.909 
05:35	58.9	58.9	58.9	92	56.6	0	1	292	0.00	29.909 
05:40	58.9	58.9	58.9	92	56.6	0	1	292	0.00	29.909 
05:45	58.7	58.7	58.7	92	56.4	0	1	292	0.00	29.913 
05:50	58.7	58.7	58.7	92	56.4	0	1	292	0.00	29.913 
05:55	58.7	58.7	58.7	92	56.4	0	1	292	0.00	29.913 
06:00	58.7	58.7	58.7	92	56.4	0	1	292	0.00	29.918 
06:05	58.7	58.7	58.7	92	56.4	0	2	292	0.00	29.918 
06:10	58.7	58.7	58.7	92	56.4	0	1	292	0.00	29.918 
06:15	58.9	58.9	58.9	92	56.6	0	1	292	0.00	29.921 
06:20	58.9	58.9	58.9	92	56.6	0	0	---	0.00	29.921 
06:25	58.9	58.9	58.9	92	56.6	0	1	292	0.00	29.921 
06:30	58.9	58.9	58.9	92	56.6	0	0	---	0.00	29.925 
06:35	58.9	58.9	58.9	92	56.6	0	1	292	0.00	29.925 
06:40	58.9	58.9	58.9	92	56.6	0	1	292	0.00	29.925 
06:45	58.9	58.9	58.9	92	56.6	0	0	---	0.00	29.928 
06:50	58.9	58.9	58.9	92	56.6	0	1	292	0.00	29.928 
06:55	58.9	58.9	58.9	92	56.6	0	0	---	0.00	29.928 
07:00	59.0	59.0	59.0	92	56.7	0	0	---	0.00	29.933 
07:05	59.0	59.0	59.0	92	56.7	0	1	292	0.00	29.933 
07:10	59.0	59.0	59.0	92	56.7	0	1	292	0.00	29.933 
07:15	59.0	59.0	59.0	92	56.7	0	1	292	0.00	29.936 
07:20	59.0	59.0	59.0	92	56.7	0	1	292	0.00	29.936 
07:25	59.0	59.0	59.0	91	56.4	0	1	292	0.00	29.936 
07:30	59.2	59.2	59.2	91	56.6	0	1	292	0.00	29.938 
07:35	59.2	59.2	59.2	91	56.6	0	1	292	0.00	29.938 
07:40	59.2	59.2	59.2	91	56.6	0	1	292	0.00	29.938 
07:45	59.3	59.3	59.3	90	56.4	0	1	292	0.00	29.938 
07:50	59.3	59.3	59.3	90	56.4	0	1	292	0.00	29.938 
07:55	59.5	59.5	59.5	90	56.6	0	1	292	0.00	29.938 
08:00	59.5	59.5	59.5	89	56.3	0	1	292	0.00	29.940 
08:05	59.6	59.6	59.6	89	56.4	0	1	292	0.00	29.940 
08:10	59.8	59.8	59.8	89	56.5	0	0	---	0.00	29.940 
08:15	59.9	59.9	59.9	89	56.6	0	1	292	0.00	29.946 
08:20	59.9	59.9	59.9	88	56.3	0	1	292	0.00	29.946 
08:25	60.1	60.1	60.1	88	56.5	0	1	292	0.00	29.946 
08:30	60.2	60.2	60.2	88	56.6	0	1	292	0.00	29.949 
08:35	60.4	60.4	60.4	87	56.5	0	1	292	0.00	29.949 
08:40	60.2	60.2	60.2	86	56.0	0	1	292	0.00	29.949 
08:45	60.4	60.4	60.4	86	56.2	0	1	292	0.00	29.953 
08:50	60.4	60.4	60.4	85	55.9	0	1	292	0.00	29.953 
08:55	60.4	60.4	60.4	85	55.9	0	1	315	0.00	29.953 
09:00	60.5	60.5	60.5	84	55.6	0	0	---	0.00	29.954 
09:05	60.9	60.9	60.9	84	56.0	0	1	315	0.00	29.954 
09:10	61.0	61.0	61.0	84	56.1	0	1	315	0.00	29.954 
09:15	61.2	61.2	61.2	83	56.0	0	1	315	0.00	29.957 
09:20	61.5	61.5	61.5	84	56.6	0	1	315	0.00	29.957 
09:25	61.6	61.6	61.6	82	56.0	0	0	---	0.00	29.957 
09:30	62.0	62.0	62.0	82	56.4	0	1	315	0.00	29.963 
09:35	62.0	62.0	62.0	80	55.8	0	1	315	0.00	29.963 
09:40	62.0	62.0	62.0	80	55.8	0	2	315	0.00	29.963 
09:45	61.8	61.8	61.8	78	54.9	0	1	315	0.00	29.965 
09:50	62.0	62.0	62.0	80	55.8	0	1	315	0.00	29.965 
09:55	62.3	62.3	62.3	80	56.0	0	1	338	0.00	29.965 
10:00	62.3	62.3	62.3	78	55.3	0	1	338	0.00	29.963 
10:05	62.3	62.3	62.3	79	55.7	0	1	338	0.00	29.963 
10:10	62.4	62.4	62.4	79	55.8	0	0	---	0.00	29.963 
10:15	62.6	62.6	62.6	77	55.3	0	1	338	0.00	29.966 
10:20	62.9	62.9	62.9	78	55.9	0	1	338	0.00	29.966 
10:25	63.4	63.4	63.4	77	56.1	0	2	338	0.00	29.966 
10:30	63.7	63.7	63.7	77	56.3	0	1	338	0.00	29.966 
10:35	64.0	64.0	64.0	75	55.9	0	1	338	0.00	29.966 
10:40	64.2	64.2	64.2	72	55.0	1	3	315	0.00	29.966 
10:45	64.5	64.5	64.5	71	54.9	0	1	315	0.00	29.967 
10:50	65.0	65.0	65.0	70	55.0	1	3	315	0.00	29.967 
10:55	65.2	65.2	65.2	69	54.8	1	4	270	0.00	29.967 
11:00	66.0	66.0	66.0	71	56.3	0	2	292	0.00	29.967 
11:05	66.0	66.0	66.0	70	55.9	1	3	292	0.00	29.967 
11:10	65.6	65.6	65.6	69	55.1	1	3	292	0.00	29.967 
11:15	65.3	65.3	65.3	70	55.3	0	1	248	0.00	29.980 
11:20	65.3	65.3	65.3	69	54.9	0	1	248	0.00	29.980 
11:25	65.6	65.6	65.6	66	53.9	1	3	248	0.00	29.980 
11:30	65.6	65.6	65.6	62	52.2	1	2	248	0.00	29.982 
11:35	66.3	66.3	66.3	64	53.7	0	2	270	0.00	29.982 
11:40	66.4	66.4	66.4	61	52.5	1	2	292	0.00	29.982 
11:45	66.8	66.8	66.8	65	54.6	0	2	292	0.00	29.981 
11:50	67.6	67.6	67.6	61	53.7	1	3	292	0.00	29.981 
11:55	67.3	67.3	67.3	60	52.9	1	4	292	0.00	29.981 
12:00	66.6	66.6	66.6	60	52.3	1	5	315	0.00	29.983 
12:05	66.0	66.0	66.0	62	52.6	1	5	270	0.00	29.983 
12:10	65.6	65.6	65.6	64	53.1	0	1	270	0.00	29.983 
12:15	66.4	66.4	66.4	61	52.5	0	2	270	0.00	29.984 
12:20	67.9	67.9	67.9	58	52.6	2	4	270	0.00	29.984 
12:25	68.1	68.1	68.1	56	51.8	1	3	315	0.00	29.984 
12:30	67.1	67.1	67.1	58	51.8	1	4	315	0.00	29.983 
12:35	67.8	67.8	67.8	58	52.5	1	3	292	0.00	29.983 
12:40	68.8	68.8	68.8	57	52.9	1	3	45	0.00	29.983 
12:45	69.4	69.4	69.4	57	53.5	1	3	45	0.00	29.980 
12:50	69.6	69.6	69.6	54	52.2	2	4	270	0.00	29.980 
12:55	69.9	69.9	69.9	54	52.5	2	4	292	0.00	29.980 
13:00	70.1	70.1	70.1	54	52.7	3	6	270	0.00	29.982 
13:05	70.4	70.4	70.4	54	52.9	1	4	270	0.00	29.982 
13:10	70.6	70.6	70.6	51	51.6	2	4	270	0.00	29.982 
13:15	70.9	70.9	70.9	51	51.9	1	3	270	0.00	29.982 
13:20	70.9	70.9	70.9	49	50.8	1	5	292	0.00	29.982 
13:25	71.3	71.3	71.3	48	50.6	1	2	315	0.00	29.982 
13:30	71.5	71.5	71.5	49	51.3	1	3	292	0.00	29.979 
13:35	71.3	71.3	71.3	48	50.6	1	3	292	0.00	29.979 
13:40	71.6	71.6	71.6	47	50.3	0	3	292	0.00	29.979 
13:45	71.1	71.1	71.1	49	51.0	0	2	292	0.00	29.980 
13:50	71.5	71.5	71.5	48	50.8	1	3	315	0.00	29.980 
13:55	72.1	72.1	72.1	47	50.7	1	3	315	0.00	29.980 
14:00	72.3	72.3	72.3	50	52.6	1	3	315	0.00	29.977 
14:05	72.5	72.5	72.5	50	52.8	1	2	270	0.00	29.977 
14:10	72.5	72.5	72.5	45	49.9	1	3	338	0.00	29.977 
14:15	72.1	72.1	72.1	49	51.9	1	5	248	0.00	29.979 
14:20	72.3	72.3	72.3	44	49.2	2	5	315	0.00	29.979 
14:25	72.1	72.1	72.1	46	50.2	2	4	270	0.00	29.979 
14:30	72.5	72.5	72.5	46	50.5	1	3	270	0.00	29.977 
14:35	72.7	72.7	72.7	44	49.5	1	3	292	0.00	29.977 
14:40	72.7	72.7	72.7	46	50.7	1	4	315	0.00	29.977 
14:45	73.0	73.0	73.0	49	52.7	1	3	315	0.00	29.978 
14:50	73.5	73.5	73.5	43	49.6	1	6	270	0.00	29.978 
14:55	72.7	72.7	72.7	45	50.1	1	4	315	0.00	29.978 
15:00	72.5	72.5	72.5	46	50.5	1	3	292	0.00	29.978 
15:05	72.1	72.1	72.1	46	50.2	1	3	315	0.00	29.978 
15:10	71.1	71.1	71.1	49	51.0	0	3	315	0.00	29.978 
15:15	70.1	70.1	70.1	50	50.6	1	3	315	0.00	29.990 
15:20	69.8	69.8	69.8	51	50.8	1	3	292	0.00	29.990 
15:25	69.9	69.9	69.9	52	51.5	1	5	248	0.00	29.990 
15:30	70.3	70.3	70.3	50	50.8	2	4	270	0.00	29.992 
15:35	70.4	70.4	70.4	52	51.9	0	2	270	0.00	29.992 
15:40	70.3	70.3	70.3	52	51.8	1	3	270	0.00	29.992 
15:45	70.1	70.1	70.1	53	52.2	0	1	315	0.00	29.991 
15:50	70.4	70.4	70.4	55	53.4	0	1	315	0.00	29.991 
15:55	71.3	71.3	71.3	48	50.6	1	3	315	0.00	29.991 
16:00	71.5	71.5	71.5	48	50.8	1	4	270	0.00	29.989 
16:05	71.5	71.5	71.5	47	50.2	1	3	270	0.00	29.989 
16:10	71.3	71.3	71.3	47	50.0	2	4	315	0.00	29.989 
16:15	72.1	72.1	72.1	50	52.4	0	2	315	0.00	29.985 
16:20	72.8	72.8	72.8	43	49.0	1	5	270	0.00	29.985 
16:25	73.0	73.0	73.0	44	49.8	1	3	270	0.00	29.985 
16:30	73.0	73.0	73.0	47	51.6	1	4	292	0.00	29.981 
16:35	72.8	72.8	72.8	46	50.8	1	2	292	0.00	29.981 
16:40	71.6	71.6	71.6	50	52.0	1	4	292	0.00	29.981 
16:45	70.8	70.8	70.8	50	51.2	1	4	315	0.00	29.987 
16:50	70.4	70.4	70.4	53	52.4	0	2	315	0.00	29.987 
16:55	70.1	70.1	70.1	55	53.2	1	3	315	0.00	29.987 
17:00	69.6	69.6	69.6	58	54.2	1	3	270	0.00	29.993 
17:05	69.6	69.6	69.6	57	53.7	1	3	315	0.00	29.993 
17:10	70.8	70.8	70.8	53	52.8	1	4	315	0.00	29.993 
17:15	70.9	70.9	70.9	52	52.4	1	5	292	0.00	29.987 
17:20	71.6	71.6	71.6	50	52.0	1	4	292	0.00	29.987 
17:25	72.1	72.1	72.1	46	50.2	2	4	292	0.00	29.987 
17:30	72.5	72.5	72.5	46	50.5	1	3	315	0.00	29.985 
17:35	72.8	72.8	72.8	45	50.2	1	3	292	0.00	29.985 
17:40	72.7	72.7	72.7	46	50.7	1	3	292	0.00	29.985 
17:45	72.7	72.7	72.7	47	51.3	1	4	270	0.00	29.991 
17:50	72.7	72.7	72.7	48	51.9	1	4	270	0.00	29.991 
17:55	72.0	72.0	72.0	49	51.8	1	3	270	0.00	29.991 
18:00	71.5	71.5	71.5	51	52.4	2	4	270	0.00	29.995 
18:05	71.5	71.5	71.5	52	52.9	1	2	292	0.00	29.995 
18:10	70.8	70.8	70.8	53	52.8	0	2	292	0.00	29.995 
18:15	70.3	70.3	70.3	54	52.9	0	1	292	0.00	29.997 
18:20	69.9	69.9	69.9	54	52.5	0	1	292	0.00	29.997 
18:25	70.3	70.3	70.3	54	52.9	0	3	292	0.00	29.997 
18:30	71.3	71.3	71.3	50	51.7	3	6	270	0.00	29.998 
18:35	71.8	71.8	71.8	48	51.0	2	5	270	0.00	29.998 
18:40	71.3	71.3	71.3	50	51.7	1	4	270	0.00	29.998 
18:45	70.8	70.8	70.8	51	51.8	1	3	292	0.00	29.998 
18:50	70.4	70.4	70.4	51	51.4	1	3	292	0.00	29.998 
18:55	70.6	70.6	70.6	51	51.6	1	3	292	0.00	29.998 
19:00	70.4	70.4	70.4	51	51.4	2	4	315	0.00	30.006 
19:05	70.8	70.8	70.8	51	51.8	1	3	292	0.00	30.006 
19:10	70.9	70.9	70.9	51	51.9	1	4	292	0.00	30.006 
19:15	70.4	70.4	70.4	50	50.9	1	2	292	0.00	30.007 
19:20	70.4	70.4	70.4	50	50.9	1	2	292	0.00	30.007 
19:25	70.8	70.8	70.8	51	51.8	0	1	292	0.00	30.007 
19:30	71.3	71.3	71.3	50	51.7	1	4	292	0.00	30.011 
19:35	71.5	71.5	71.5	47	50.2	2	4	315	0.00	30.011 
19:40	70.9	70.9	70.9	47	49.7	1	4	315	0.00	30.011 
19:45	70.8	70.8	70.8	48	50.1	1	3	315	0.00	30.017 
19:50	70.6	70.6	70.6	48	49.9	1	5	315	0.00	30.017 
19:55	70.3	70.3	70.3	48	49.7	1	3	315	0.00	30.017 
20:00	70.1	70.1	70.1	49	50.0	1	4	315	0.00	30.025 
20:05	69.9	69.9	69.9	50	50.4	0	1	292	0.00	30.025 
20:10	69.8	69.8	69.8	49	49.8	2	4	292	0.00	30.025 
20:15	69.4	69.4	69.4	49	49.4	1	3	315	0.00	30.027 
20:20	69.1	69.1	69.1	49	49.1	1	2	315	0.00	30.027 
20:25	68.9	68.9	68.9	50	49.5	0	2	315	0.00	30.027 
20:30	68.6	68.6	68.6	50	49.2	1	1	315	0.00	30.029 
20:35	68.4	68.4	68.4	51	49.6	0	3	315	0.00	30.029 
20:40	68.1	68.1	68.1	52	49.8	1	3	292	0.00	30.029 
20:45	67.8	67.8	67.8	53	50.0	0	2	315	0.00	30.032 
20:50	67.6	67.6	67.6	53	49.9	1	4	315	0.00	30.032 
20:55	67.4	67.4	67.4	53	49.7	1	3	315	0.00	30.032 
21:00	67.1	67.1	67.1	53	49.4	1	3	315	0.00	30.039 
21:05	66.9	66.9	66.9	53	49.2	0	1	292	0.00	30.039 
21:10	66.6	66.6	66.6	54	49.4	0	2	292	0.00	30.039 
21:15	66.3	66.3	66.3	54	49.1	0	1	292	0.00	30.043 
21:20	66.1	66.1	66.1	55	49.5	0	1	292	0.00	30.043 
21:25	65.8	65.8	65.8	56	49.7	0	1	292	0.00	30.043 
21:30	65.6	65.6	65.6	56	49.5	0	1	292	0.00	30.045 
21:35	65.3	65.3	65.3	57	49.7	0	1	292	0.00	30.045 
21:40	65.2	65.2	65.2	58	50.0	0	0	---	0.00	30.045 
21:45	64.8	64.8	64.8	59	50.1	0	0	---	0.00	30.053 
21:50	64.7	64.7	64.7	59	50.0	0	0	---	0.00	30.053 
21:55	64.3	64.3	64.3	60	50.1	0	0	---	0.00	30.053 
22:00	64.2	64.2	64.2	60	50.0	0	0	---	0.00	30.062 
22:05	63.9	63.9	63.9	61	50.2	0	0	---	0.00	30.062 
22:10	63.7	63.7	63.7	62	50.4	0	0	---	0.00	30.062 
22:15	63.5	63.5	63.5	62	50.2	0	0	---	0.00	30.060 
22:20	63.2	63.2	63.2	63	50.4	0	0	---	0.00	30.060 
22:25	62.9	62.9	62.9	64	50.5	0	0	---	0.00	30.060 
22:30	62.6	62.6	62.6	65	50.7	0	0	---	0.00	30.063 
22:35	62.3	62.3	62.3	66	50.8	0	0	---	0.00	30.063 
22:40	62.0	62.0	62.0	66	50.5	0	0	---	0.00	30.063 
22:45	61.6	61.6	61.6	67	50.5	0	0	---	0.00	30.066 
22:50	61.5	61.5	61.5	68	50.8	0	0	---	0.00	30.066 
22:55	61.5	61.5	61.5	68	50.8	0	1	292	0.00	30.066 
23:00	61.6	61.6	61.6	68	50.9	0	0	---	0.00	30.069 
23:05	61.6	61.6	61.6	69	51.3	0	0	---	0.00	30.069 
23:10	61.6	61.6	61.6	69	51.3	0	0	---	0.00	30.069 
23:15	61.5	61.5	61.5	70	51.6	0	0	---	0.00	30.072 
23:20	61.2	61.2	61.2	70	51.3	0	0	---	0.00	30.072 
23:25	60.9	60.9	60.9	70	51.0	0	0	---	0.00	30.072 
23:30	60.5	60.5	60.5	71	51.0	0	0	---	0.00	30.079 
23:35	60.2	60.2	60.2	72	51.1	0	0	---	0.00	30.079 
23:40	59.9	59.9	59.9	73	51.2	0	0	---	0.00	30.079 
23:45	59.6	59.6	59.6	74	51.3	0	0	---	0.00	30.079 
23:50	59.3	59.3	59.3	75	51.4	0	0	---	0.00	30.079 
23:55	59.0	59.0	59.0	75	51.1	0	0	---	0.00	30.079 

CoCoRaHS
IN-AL-39
A2 Web Hosting
Creative Commons License
GoDaddy
search engine by freefind advanced

loaded 2018-11-12 14:43:22 • last modified 2010-11-18 10:43:29
Privacy PolicyDisclaimer
• wx.awcolley.com is powered by PmWiki v.2002016 •
• all content (unless otherwise noted) © 2018 A W Colley